Airfield :
LOGIN :

Register | Disclaimer

   EN    FR    IT 

 










Legend :    VFR   Marginal VFR   IFR   Intensive IFR   Very Intensive IFR
Visi :
Ceiling :
>= 8 km
>= 3000ft
5 to 8 km
1000 to 3000 ft
1500m to 5 km
500 to 1000 ft
800 to 1500m
200 to 500 ft
< 800m
< 200 ft
Symbols :   Thunderstorms  Fog  Heavy snow  Heavy precipitations  Wind > 20 kt
SIGMETs :     Misc.  Thunderstorms  Icing  Turbulence  Mountain Waves  Volcanic Ashes







- Airport Elevation : 256 ft
- IATA code : CFR
- Download approach charts


LFRK - Caen

CURRENT METAR :
  • 250030Z AUTO 25011KT 9999 BKN032 BKN040 BKN050 13/10 Q1014

EXPIRED METARs :
  • 250000Z AUTO 24009KT 9999 FEW016 OVC037 13/10 Q1014
  • 242330Z AUTO 26008KT 9999 BKN017 OVC036 13/11 Q1014
  • 242300Z AUTO 24008KT 9999 SCT022 BKN029 BKN034 13/11 Q1014
  • 242230Z AUTO 24012KT 9999 FEW016 BKN041 13/11 Q1014
  • 242200Z AUTO 25011KT 9999 FEW040 OVC130 13/10 Q1014

Expired Forecast.
Met : +33 2 31 26 68 11
No reported NOTAMs for that airfield.



MET'MAP, your aeronautical weather chart ! - Copyright ORBIFLY December 2007 - Disclaimer

ORBIFLY MET'MAP TEAM :

Programming & Development : Alexandra Zaïnal
Concept & Development : Baudouin d'Aumeries
Co-Development & Prog : Marc-Olivier Méhu
Technical & hardware support : Manuel Goepfert

Contact : metmap@orbifly.com




SOURCES & CREDITS :

   NOAA